createdAt,value
2022-12-08T00:00:34.033Z,14.50
2022-12-08T00:01:33.523Z,14.70
2022-12-08T00:02:33.933Z,14.70
2022-12-08T00:03:33.805Z,14.60
2022-12-08T00:04:33.470Z,14.30
2022-12-08T00:05:33.827Z,14.20
2022-12-08T00:06:33.538Z,14.70
2022-12-08T00:07:33.761Z,14.50
2022-12-08T00:08:34.114Z,14.50
2022-12-08T00:09:38.755Z,14.90
2022-12-08T00:10:49.044Z,15.10
2022-12-08T00:11:33.669Z,15.20
2022-12-08T00:12:33.858Z,15.20
2022-12-08T00:13:33.557Z,16.00
2022-12-08T00:14:34.580Z,15.30
2022-12-08T00:15:33.665Z,16.30
2022-12-08T00:16:32.728Z,16.50
2022-12-08T00:17:33.406Z,16.50
2022-12-08T00:18:33.598Z,16.80
2022-12-08T00:19:33.612Z,16.30
2022-12-08T00:20:33.516Z,16.80
2022-12-08T00:21:33.743Z,17.40
2022-12-08T00:22:33.490Z,17.60
2022-12-08T00:23:33.532Z,18.20
2022-12-08T00:24:33.425Z,19.80
2022-12-08T00:25:33.533Z,18.80
2022-12-08T00:26:33.490Z,19.40
2022-12-08T00:27:33.709Z,20.30
2022-12-08T00:28:33.422Z,19.50
2022-12-08T00:29:33.372Z,20.00
2022-12-08T00:30:33.371Z,20.60
2022-12-08T00:31:33.541Z,19.10
2022-12-08T00:32:33.541Z,19.20
2022-12-08T00:33:33.361Z,19.70
2022-12-08T00:34:33.238Z,19.30
2022-12-08T00:35:34.846Z,20.40
2022-12-08T00:36:33.355Z,19.90
2022-12-08T00:37:33.354Z,20.00
2022-12-08T00:38:34.028Z,20.90
2022-12-08T00:39:33.553Z,21.60
2022-12-08T00:40:33.443Z,22.60
2022-12-08T00:41:33.241Z,23.00
2022-12-08T00:42:33.217Z,23.80
2022-12-08T00:43:34.854Z,24.50
2022-12-08T00:44:33.530Z,24.40
2022-12-08T00:45:33.360Z,25.00
2022-12-08T00:46:33.241Z,25.80
2022-12-08T00:47:33.203Z,25.80
2022-12-08T00:48:33.245Z,26.00
2022-12-08T00:49:33.289Z,26.20
2022-12-08T00:50:33.228Z,26.20
2022-12-08T00:51:33.122Z,28.00
2022-12-08T00:52:33.285Z,28.60
2022-12-08T00:53:32.913Z,28.40
2022-12-08T00:54:33.603Z,28.00
2022-12-08T00:55:33.255Z,28.30
2022-12-08T00:56:33.144Z,28.50
2022-12-08T00:57:33.359Z,28.80
2022-12-08T00:58:33.066Z,28.00
2022-12-08T00:59:33.042Z,28.70
2022-12-08T01:00:33.510Z,28.30
2022-12-08T01:01:33.932Z,28.40
2022-12-08T01:02:33.072Z,28.00
2022-12-08T01:03:33.376Z,27.40
2022-12-08T01:04:33.174Z,26.90
2022-12-08T01:06:16.820Z,27.40
2022-12-08T01:07:16.453Z,26.80
2022-12-08T01:08:16.516Z,27.70
2022-12-08T01:09:16.687Z,28.50
2022-12-08T01:10:16.419Z,27.20
2022-12-08T01:11:16.832Z,27.20
2022-12-08T01:12:16.234Z,28.50
2022-12-08T01:13:16.423Z,28.00
2022-12-08T01:14:16.392Z,28.40
2022-12-08T01:15:16.444Z,27.50
2022-12-08T01:16:16.108Z,28.20
2022-12-08T01:17:16.222Z,28.60
2022-12-08T01:18:16.340Z,27.90
2022-12-08T01:19:16.252Z,27.80
2022-12-08T01:20:16.378Z,26.80
2022-12-08T01:21:16.492Z,27.20
2022-12-08T01:22:16.137Z,26.70
2022-12-08T01:23:16.781Z,27.50
2022-12-08T01:24:16.083Z,27.30
2022-12-08T01:25:16.121Z,27.60
2022-12-08T01:26:16.301Z,26.50
2022-12-08T01:27:16.291Z,26.90
2022-12-08T01:28:16.539Z,28.00
2022-12-08T01:29:16.123Z,27.80
2022-12-08T01:30:16.097Z,27.70
2022-12-08T01:31:16.943Z,27.60
2022-12-08T01:32:16.106Z,27.40
2022-12-08T01:33:16.305Z,28.10
2022-12-08T01:34:15.941Z,27.60
2022-12-08T01:35:16.130Z,27.80
2022-12-08T01:36:16.004Z,28.40
2022-12-08T01:37:18.886Z,29.10
2022-12-08T01:38:16.081Z,28.10
2022-12-08T01:39:16.221Z,27.30
2022-12-08T01:40:15.963Z,27.40
2022-12-08T01:41:16.290Z,28.00
2022-12-08T01:42:15.940Z,28.00
2022-12-08T01:43:16.500Z,28.50
2022-12-08T01:44:16.338Z,29.50
2022-12-08T01:45:16.195Z,29.60
2022-12-08T01:46:15.833Z,29.30
2022-12-08T01:47:15.788Z,30.30
2022-12-08T01:48:16.165Z,30.20
2022-12-08T01:49:17.525Z,31.60
2022-12-08T01:50:16.265Z,32.20
2022-12-08T01:51:15.764Z,31.90
2022-12-08T01:52:16.282Z,32.10
2022-12-08T01:53:15.838Z,31.40
2022-12-08T01:54:15.933Z,31.00
2022-12-08T01:55:15.713Z,31.10
2022-12-08T01:56:52.053Z,31.80
2022-12-08T01:57:16.221Z,32.10
2022-12-08T01:58:15.751Z,33.10
2022-12-08T01:59:15.951Z,32.50
2022-12-08T02:00:16.965Z,32.90
2022-12-08T02:01:15.906Z,32.70
2022-12-08T02:02:15.938Z,33.30
2022-12-08T02:03:15.915Z,33.30
2022-12-08T02:04:15.700Z,33.20
2022-12-08T02:05:16.059Z,32.90
2022-12-08T02:06:15.611Z,33.30
2022-12-08T02:07:15.925Z,34.70
2022-12-08T02:08:15.755Z,34.00
2022-12-08T02:09:16.307Z,32.90
2022-12-08T02:10:16.227Z,33.30
2022-12-08T02:11:16.083Z,33.40
2022-12-08T02:12:15.683Z,34.60
2022-12-08T02:13:15.624Z,34.40
2022-12-08T02:14:15.709Z,34.10
2022-12-08T02:15:15.604Z,34.40
2022-12-08T02:16:15.904Z,34.70
2022-12-08T02:17:15.804Z,34.80
2022-12-08T02:18:15.655Z,34.70
2022-12-08T02:19:31.570Z,33.30
2022-12-08T02:20:15.714Z,34.30
2022-12-08T02:21:15.737Z,33.70
2022-12-08T02:22:15.680Z,34.10
2022-12-08T02:23:16.063Z,33.60
2022-12-08T02:24:15.512Z,33.70
2022-12-08T02:25:15.721Z,32.80
2022-12-08T02:26:15.609Z,33.90
2022-12-08T02:27:16.431Z,34.10
2022-12-08T02:28:15.666Z,34.60
2022-12-08T02:29:15.940Z,34.20
2022-12-08T02:30:15.537Z,35.20
2022-12-08T02:31:15.807Z,34.60
2022-12-08T02:32:15.865Z,35.60
2022-12-08T02:33:15.573Z,33.70
2022-12-08T02:34:15.402Z,34.90
2022-12-08T02:35:15.608Z,35.40
2022-12-08T02:36:15.688Z,36.50
2022-12-08T02:37:15.894Z,36.10
2022-12-08T02:38:15.524Z,36.50
2022-12-08T02:39:15.639Z,36.60
2022-12-08T02:40:16.288Z,36.50
2022-12-08T02:41:15.405Z,36.50
2022-12-08T02:42:15.484Z,36.30
2022-12-08T02:43:15.221Z,37.30
2022-12-08T02:44:15.321Z,37.90
2022-12-08T02:45:15.408Z,37.90
2022-12-08T02:46:15.584Z,38.70
2022-12-08T02:47:15.233Z,38.60
2022-12-08T02:48:15.415Z,39.40
2022-12-08T02:49:15.241Z,39.60
2022-12-08T02:50:15.392Z,40.70
2022-12-08T02:51:15.350Z,40.50
2022-12-08T02:52:15.365Z,39.70
2022-12-08T02:53:59.398Z,40.90
2022-12-08T02:55:00.024Z,41.50
2022-12-08T02:55:59.583Z,42.40
2022-12-08T02:56:59.447Z,43.10
2022-12-08T02:57:59.480Z,42.80
2022-12-08T02:58:59.369Z,43.10
2022-12-08T02:59:59.614Z,44.00
2022-12-08T03:00:59.583Z,44.20
2022-12-08T03:01:59.579Z,43.20
2022-12-08T03:03:00.210Z,44.10
2022-12-08T03:03:59.471Z,45.30
2022-12-08T03:04:59.719Z,44.30
2022-12-08T03:05:59.538Z,45.60
2022-12-08T03:06:59.322Z,44.40
2022-12-08T03:07:59.351Z,45.00
2022-12-08T03:08:59.359Z,46.00
2022-12-08T03:09:59.587Z,46.40
2022-12-08T03:11:00.103Z,46.00
2022-12-08T03:11:59.665Z,46.00
2022-12-08T03:12:59.591Z,45.90
2022-12-08T03:14:01.158Z,45.80
2022-12-08T03:14:59.507Z,46.40
2022-12-08T03:15:59.439Z,47.00
2022-12-08T03:16:59.294Z,47.00
2022-12-08T03:17:59.496Z,47.50
2022-12-08T03:18:59.360Z,47.00
2022-12-08T03:19:59.230Z,48.00
2022-12-08T03:20:59.296Z,48.40
2022-12-08T03:22:00.111Z,48.60
2022-12-08T03:22:59.428Z,47.90
2022-12-08T03:23:59.516Z,48.70
2022-12-08T03:24:59.251Z,48.30
2022-12-08T03:25:59.316Z,46.70
2022-12-08T03:26:59.278Z,47.10
2022-12-08T03:27:59.215Z,49.10
2022-12-08T03:28:59.170Z,47.30
2022-12-08T03:29:59.235Z,47.10
2022-12-08T03:30:59.451Z,47.70
2022-12-08T03:31:59.487Z,48.40
2022-12-08T03:32:59.893Z,48.20
2022-12-08T03:33:59.727Z,48.60
2022-12-08T03:34:59.344Z,49.20
2022-12-08T03:35:59.735Z,50.30
2022-12-08T03:36:59.401Z,49.10
2022-12-08T03:38:58.353Z,48.40
2022-12-08T03:39:59.420Z,48.50
2022-12-08T03:40:59.344Z,50.00
2022-12-08T03:41:59.143Z,50.60
2022-12-08T03:42:59.177Z,49.60
2022-12-08T03:43:59.285Z,50.30
2022-12-08T03:44:59.180Z,51.20
2022-12-08T03:45:59.100Z,51.30
2022-12-08T03:46:59.161Z,50.70
2022-12-08T03:47:59.133Z,51.80
2022-12-08T03:48:59.103Z,52.00
2022-12-08T03:49:59.144Z,51.70
2022-12-08T03:50:59.151Z,50.40
2022-12-08T03:51:59.082Z,50.70
2022-12-08T03:52:59.029Z,53.40
2022-12-08T03:53:59.145Z,52.90
2022-12-08T03:54:59.069Z,53.40
2022-12-08T03:55:59.010Z,53.70
2022-12-08T03:56:59.001Z,54.10
2022-12-08T03:57:59.080Z,54.80
2022-12-08T03:58:59.038Z,53.60
2022-12-08T03:59:58.966Z,55.50
2022-12-08T04:00:59.001Z,54.40
2022-12-08T04:01:59.003Z,55.40
2022-12-08T04:02:59.050Z,54.20
2022-12-08T04:03:59.006Z,55.20
2022-12-08T04:04:58.925Z,54.40
2022-12-08T04:05:58.938Z,55.50
2022-12-08T04:06:58.874Z,55.10
2022-12-08T04:07:58.985Z,52.60
2022-12-08T04:08:58.864Z,54.40
2022-12-08T04:09:58.925Z,54.00
2022-12-08T04:10:58.890Z,55.50
2022-12-08T04:11:58.895Z,54.50
2022-12-08T04:12:58.839Z,54.40
2022-12-08T04:13:58.889Z,52.50
2022-12-08T04:14:58.811Z,53.70
2022-12-08T04:15:58.919Z,54.70
2022-12-08T04:16:58.807Z,53.30
2022-12-08T04:17:58.854Z,53.60
2022-12-08T04:18:58.771Z,53.30
2022-12-08T04:19:58.753Z,54.50
2022-12-08T04:20:58.722Z,53.00
2022-12-08T04:21:58.731Z,53.10
2022-12-08T04:22:58.743Z,52.60
2022-12-08T04:24:01.233Z,52.80
2022-12-08T04:24:58.751Z,51.50
2022-12-08T04:25:58.727Z,53.60
2022-12-08T04:26:58.722Z,53.20
2022-12-08T04:27:58.678Z,53.40
2022-12-08T04:28:58.704Z,53.70
2022-12-08T04:29:58.748Z,53.10
2022-12-08T04:30:58.713Z,53.50
2022-12-08T04:31:58.780Z,53.70
2022-12-08T04:32:58.680Z,54.30
2022-12-08T04:33:58.644Z,54.70
2022-12-08T04:34:58.633Z,55.40
2022-12-08T04:35:58.633Z,55.30
2022-12-08T04:36:58.584Z,54.10
2022-12-08T04:37:58.581Z,54.80
2022-12-08T04:38:58.628Z,55.20
2022-12-08T04:39:58.576Z,55.00
2022-12-08T04:40:58.532Z,54.30
2022-12-08T04:41:58.557Z,54.30
2022-12-08T04:42:58.556Z,54.70
2022-12-08T04:43:58.547Z,54.40
2022-12-08T04:44:58.508Z,53.20
2022-12-08T04:45:58.561Z,54.00
2022-12-08T04:46:58.560Z,54.00
2022-12-08T04:47:58.509Z,52.90
2022-12-08T04:48:58.492Z,52.20
2022-12-08T04:49:58.528Z,54.10
2022-12-08T04:50:58.460Z,53.80
2022-12-08T04:51:58.472Z,54.20
2022-12-08T04:52:58.446Z,54.40
2022-12-08T04:53:58.449Z,52.50
2022-12-08T04:54:58.428Z,50.90
2022-12-08T04:55:58.449Z,51.90
2022-12-08T04:56:58.380Z,52.40
2022-12-08T04:57:58.372Z,49.50
2022-12-08T04:58:58.489Z,51.20
2022-12-08T04:59:58.388Z,51.30
2022-12-08T05:00:58.501Z,50.90
2022-12-08T05:01:58.462Z,52.30
2022-12-08T05:02:58.429Z,52.10
2022-12-08T05:03:58.357Z,52.20
2022-12-08T05:04:58.305Z,49.70
2022-12-08T05:05:58.320Z,49.60
2022-12-08T05:06:58.294Z,50.30
2022-12-08T05:07:58.351Z,49.60
2022-12-08T05:08:58.360Z,47.60
2022-12-08T05:09:58.309Z,49.00
2022-12-08T05:10:58.260Z,48.90
2022-12-08T05:11:58.233Z,49.50
2022-12-08T05:12:58.208Z,49.30
2022-12-08T05:13:58.234Z,49.70
2022-12-08T05:14:58.239Z,49.20
2022-12-08T05:15:58.321Z,48.80
2022-12-08T05:16:58.201Z,48.20
2022-12-08T05:17:58.170Z,46.30
2022-12-08T05:18:58.144Z,45.90
2022-12-08T05:19:58.183Z,41.30
2022-12-08T05:20:58.146Z,42.70
2022-12-08T05:21:58.229Z,41.90
2022-12-08T05:22:58.144Z,43.50
2022-12-08T05:23:58.182Z,44.00
2022-12-08T05:24:58.205Z,43.20
2022-12-08T05:25:58.106Z,42.70
2022-12-08T05:26:58.111Z,43.00
2022-12-08T05:28:17.568Z,40.40
2022-12-08T05:28:58.092Z,40.40
2022-12-08T05:29:58.094Z,41.80
2022-12-08T05:30:58.022Z,41.10
2022-12-08T05:31:58.099Z,40.80
2022-12-08T05:32:58.061Z,40.40
2022-12-08T05:34:02.743Z,41.00
2022-12-08T05:34:58.009Z,41.40
2022-12-08T05:35:58.098Z,40.70
2022-12-08T05:36:57.963Z,41.20
2022-12-08T05:37:58.029Z,41.00
2022-12-08T05:38:57.975Z,41.50
2022-12-08T05:39:58.029Z,42.10
2022-12-08T05:40:57.943Z,42.70
2022-12-08T05:41:57.969Z,41.90
2022-12-08T05:42:57.907Z,42.70
2022-12-08T05:43:57.934Z,43.20
2022-12-08T05:44:57.882Z,43.30
2022-12-08T05:45:57.920Z,43.90
2022-12-08T05:46:57.875Z,42.50
2022-12-08T05:47:57.830Z,43.00
2022-12-08T05:48:57.969Z,40.80
2022-12-08T05:49:57.824Z,40.50
2022-12-08T05:50:57.843Z,41.30
2022-12-08T05:51:57.860Z,41.70
2022-12-08T05:52:57.877Z,42.20
2022-12-08T05:53:57.801Z,41.60
2022-12-08T05:54:57.787Z,41.90
2022-12-08T05:55:57.748Z,42.10
2022-12-08T05:56:57.784Z,42.10
2022-12-08T05:57:58.607Z,42.20
2022-12-08T05:58:57.714Z,42.00
2022-12-08T05:59:57.705Z,43.00
2022-12-08T06:00:57.686Z,41.80
2022-12-08T06:01:57.895Z,42.70
2022-12-08T06:02:57.879Z,42.90
2022-12-08T06:03:57.672Z,43.50
2022-12-08T06:04:57.670Z,42.90
2022-12-08T06:05:57.650Z,42.10
2022-12-08T06:06:57.648Z,43.10
2022-12-08T06:07:57.686Z,43.60
2022-12-08T06:08:57.614Z,42.90
2022-12-08T06:09:57.628Z,43.40
2022-12-08T06:10:57.594Z,42.20
2022-12-08T06:11:57.620Z,41.00
2022-12-08T06:12:57.583Z,42.30
2022-12-08T06:13:57.606Z,39.70
2022-12-08T06:14:57.573Z,40.00
2022-12-08T06:15:57.581Z,38.50
2022-12-08T06:16:57.619Z,38.70
2022-12-08T06:17:57.521Z,40.80
2022-12-08T06:18:57.542Z,40.30
2022-12-08T06:19:57.511Z,37.90
2022-12-08T06:20:57.502Z,36.30
2022-12-08T06:21:57.489Z,37.40
2022-12-08T06:22:57.459Z,37.10
2022-12-08T06:23:57.634Z,37.50
2022-12-08T06:24:57.457Z,37.10
2022-12-08T06:25:57.465Z,36.70
2022-12-08T06:26:57.437Z,36.80
2022-12-08T06:27:57.443Z,37.00
2022-12-08T06:28:57.428Z,35.80
2022-12-08T06:29:57.431Z,36.40
2022-12-08T06:30:57.402Z,33.40
2022-12-08T06:31:57.472Z,33.00
2022-12-08T06:32:57.372Z,31.20
2022-12-08T06:33:57.364Z,31.20
2022-12-08T06:34:57.337Z,31.00
2022-12-08T06:35:57.343Z,30.20
2022-12-08T06:36:57.333Z,28.60
2022-12-08T06:37:57.396Z,28.20
2022-12-08T06:38:57.305Z,28.90
2022-12-08T06:39:57.316Z,28.10
2022-12-08T06:41:03.749Z,28.10
2022-12-08T06:42:05.538Z,28.60
2022-12-08T06:42:58.435Z,28.90
2022-12-08T06:43:57.342Z,28.50
2022-12-08T06:44:57.254Z,27.10
2022-12-08T06:45:57.320Z,27.80
2022-12-08T06:46:57.257Z,25.90
2022-12-08T06:47:57.240Z,27.00
2022-12-08T06:48:57.271Z,25.60
2022-12-08T06:49:57.210Z,25.40
2022-12-08T06:50:57.206Z,24.30
2022-12-08T06:51:57.198Z,23.90
2022-12-08T06:53:04.797Z,24.80
2022-12-08T06:53:57.178Z,24.90
2022-12-08T06:54:57.101Z,25.00
2022-12-08T06:55:59.665Z,25.00
2022-12-08T06:56:57.072Z,25.30
2022-12-08T06:57:57.253Z,23.40
2022-12-08T06:58:57.071Z,23.70
2022-12-08T06:59:57.094Z,23.90
2022-12-08T07:00:57.111Z,23.00
2022-12-08T07:01:57.100Z,21.50
2022-12-08T07:02:57.150Z,21.30
2022-12-08T07:03:57.051Z,21.30
2022-12-08T07:04:57.022Z,21.40
2022-12-08T07:06:03.253Z,22.40
2022-12-08T07:06:56.996Z,21.60
2022-12-08T07:07:57.095Z,21.50
2022-12-08T07:08:56.984Z,21.60
2022-12-08T07:09:56.978Z,18.20
2022-12-08T07:10:56.929Z,18.60
2022-12-08T07:11:56.901Z,18.00
2022-12-08T07:12:56.905Z,18.40
2022-12-08T07:13:56.910Z,18.40
2022-12-08T07:14:56.888Z,17.90
2022-12-08T07:15:56.906Z,17.40
2022-12-08T07:16:56.993Z,17.20
2022-12-08T07:18:00.107Z,16.60
2022-12-08T07:18:56.855Z,18.10
2022-12-08T07:19:56.831Z,17.00
2022-12-08T07:20:56.810Z,16.90
2022-12-08T07:21:56.813Z,15.90
2022-12-08T07:22:57.040Z,16.10
2022-12-08T07:23:58.012Z,16.60
2022-12-08T07:24:56.768Z,16.30
2022-12-08T07:25:56.804Z,17.00
2022-12-08T07:26:56.803Z,15.50
2022-12-08T07:27:56.740Z,15.90
2022-12-08T07:28:56.749Z,15.40
2022-12-08T07:29:56.746Z,15.10
2022-12-08T07:30:56.748Z,14.70
2022-12-08T07:31:56.696Z,13.50
2022-12-08T07:32:56.714Z,14.60
2022-12-08T07:33:56.690Z,14.00
2022-12-08T07:34:56.670Z,13.90
2022-12-08T07:35:56.668Z,14.10
2022-12-08T07:36:56.644Z,13.90
2022-12-08T07:37:56.643Z,14.40
2022-12-08T07:38:56.679Z,13.60
2022-12-08T07:39:56.676Z,14.50
2022-12-08T07:40:56.630Z,14.60
2022-12-08T07:41:56.614Z,15.30
2022-12-08T07:42:56.625Z,16.80
2022-12-08T07:43:56.627Z,16.70
2022-12-08T07:44:56.576Z,16.00
2022-12-08T07:45:56.752Z,16.20
2022-12-08T07:46:56.554Z,15.90
2022-12-08T07:47:56.534Z,16.50
2022-12-08T07:48:56.610Z,16.50
2022-12-08T07:49:56.573Z,16.60
2022-12-08T07:50:56.504Z,16.60
2022-12-08T07:51:56.526Z,16.70
2022-12-08T07:52:56.508Z,17.20
2022-12-08T07:53:56.490Z,16.90
2022-12-08T07:54:56.481Z,16.60
2022-12-08T07:55:56.524Z,16.40
2022-12-08T07:56:56.450Z,16.10
2022-12-08T07:57:56.448Z,16.60
2022-12-08T07:58:56.447Z,16.20
2022-12-08T07:59:56.554Z,15.90
2022-12-08T08:00:56.518Z,15.80
2022-12-08T08:02:22.411Z,16.30
2022-12-08T08:02:56.504Z,15.70
2022-12-08T08:03:56.377Z,15.20
2022-12-08T08:04:56.418Z,14.60
2022-12-08T08:05:56.359Z,14.20
2022-12-08T08:06:56.354Z,14.80
2022-12-08T08:07:56.395Z,15.10
2022-12-08T08:08:56.349Z,14.80
2022-12-08T08:09:56.312Z,13.20
2022-12-08T08:10:56.333Z,13.70
2022-12-08T08:12:29.086Z,12.80
2022-12-08T08:12:56.317Z,13.10
2022-12-08T08:13:56.249Z,14.40
2022-12-08T08:14:56.286Z,11.80
2022-12-08T08:15:56.400Z,11.00
2022-12-08T08:16:56.523Z,10.80
2022-12-08T08:17:56.222Z,9.90
2022-12-08T08:18:56.256Z,10.10
2022-12-08T08:19:56.220Z,10.00
2022-12-08T08:20:57.979Z,10.50
2022-12-08T08:21:56.186Z,10.10
2022-12-08T08:22:56.176Z,10.10
2022-12-08T08:23:56.159Z,9.20
2022-12-08T08:24:56.230Z,9.30
2022-12-08T08:25:56.179Z,9.30
2022-12-08T08:26:56.142Z,8.90
2022-12-08T08:27:56.159Z,8.80
2022-12-08T08:28:56.126Z,9.20
2022-12-08T08:29:56.100Z,10.00
2022-12-08T08:30:56.138Z,8.80
2022-12-08T08:31:56.112Z,8.30
2022-12-08T08:32:56.063Z,7.60
2022-12-08T08:33:56.050Z,7.60
2022-12-08T08:34:56.123Z,7.10
2022-12-08T08:35:56.082Z,7.40
2022-12-08T08:36:56.069Z,7.00
2022-12-08T08:37:56.045Z,7.20
2022-12-08T08:38:56.017Z,7.30
2022-12-08T08:39:56.021Z,6.80
2022-12-08T08:40:56.026Z,6.70
2022-12-08T08:41:56.019Z,6.60
2022-12-08T08:42:55.988Z,6.30
2022-12-08T08:43:55.973Z,5.80
2022-12-08T08:44:56.048Z,6.30
2022-12-08T08:45:56.002Z,6.50
2022-12-08T08:46:55.986Z,6.70
2022-12-08T08:47:55.950Z,5.70
2022-12-08T08:48:55.988Z,6.70
2022-12-08T08:49:55.899Z,6.70
2022-12-08T08:50:55.923Z,7.30
2022-12-08T08:51:55.999Z,6.30
2022-12-08T08:52:55.893Z,5.80
2022-12-08T08:53:55.858Z,6.00
2022-12-08T08:54:55.881Z,6.20
2022-12-08T08:55:55.860Z,5.80
2022-12-08T08:56:55.836Z,5.90
2022-12-08T08:57:55.818Z,5.80
2022-12-08T08:58:55.878Z,6.10
2022-12-08T08:59:55.821Z,6.10
2022-12-08T09:00:55.820Z,5.90
2022-12-08T09:01:55.893Z,6.10
2022-12-08T09:02:55.806Z,5.70
2022-12-08T09:03:55.789Z,6.00
2022-12-08T09:04:55.838Z,6.30
2022-12-08T09:05:55.776Z,6.10
2022-12-08T09:06:55.742Z,5.90
2022-12-08T09:07:55.794Z,6.00
2022-12-08T09:08:55.709Z,6.10
2022-12-08T09:10:01.268Z,5.80
2022-12-08T09:10:55.746Z,5.70
2022-12-08T09:11:55.704Z,6.20
2022-12-08T09:12:55.679Z,6.20
2022-12-08T09:13:55.655Z,6.20
2022-12-08T09:14:55.690Z,5.60
2022-12-08T09:15:55.685Z,6.40
2022-12-08T09:16:55.628Z,6.10
2022-12-08T09:17:55.640Z,5.80
2022-12-08T09:18:55.610Z,6.10
2022-12-08T09:19:55.591Z,6.00
2022-12-08T09:20:55.681Z,6.20
2022-12-08T09:21:55.632Z,6.00
2022-12-08T09:22:55.579Z,6.10
2022-12-08T09:23:55.578Z,6.10
2022-12-08T09:24:55.592Z,5.90
2022-12-08T09:25:55.537Z,6.20
2022-12-08T09:26:55.531Z,5.40
2022-12-08T09:27:55.509Z,5.90
2022-12-08T09:28:55.516Z,6.70
2022-12-08T09:29:55.490Z,6.40
2022-12-08T09:30:55.567Z,6.50
2022-12-08T09:31:55.523Z,6.60
2022-12-08T09:32:55.465Z,6.90
2022-12-08T09:33:55.509Z,7.00
2022-12-08T09:34:55.494Z,7.40
2022-12-08T09:35:55.434Z,7.40
2022-12-08T09:36:55.436Z,7.40
2022-12-08T09:37:55.438Z,7.10
2022-12-08T09:38:55.430Z,7.00
2022-12-08T09:39:55.412Z,7.50
2022-12-08T09:40:55.397Z,7.50
2022-12-08T09:41:55.383Z,7.80
2022-12-08T09:42:55.362Z,8.20
2022-12-08T09:43:55.409Z,8.50
2022-12-08T09:44:55.357Z,8.00
2022-12-08T09:45:55.314Z,8.40
2022-12-08T09:46:55.403Z,8.40
2022-12-08T09:47:55.303Z,8.20
2022-12-08T09:48:55.304Z,8.30
2022-12-08T09:49:55.315Z,8.30
2022-12-08T09:50:55.291Z,7.90
2022-12-08T09:51:55.264Z,8.00
2022-12-08T09:52:55.253Z,8.40
2022-12-08T09:53:55.289Z,7.70
2022-12-08T09:54:55.231Z,7.20
2022-12-08T09:55:55.218Z,7.30
2022-12-08T09:56:55.235Z,7.80
2022-12-08T09:57:56.636Z,7.50
2022-12-08T09:58:55.193Z,7.80
2022-12-08T09:59:55.204Z,8.30
2022-12-08T10:00:55.190Z,8.50
2022-12-08T10:01:55.233Z,8.30
2022-12-08T10:02:55.141Z,8.20
2022-12-08T10:03:55.208Z,7.80
2022-12-08T10:04:55.195Z,7.70
2022-12-08T10:05:55.143Z,7.60
2022-12-08T10:06:55.126Z,7.50
2022-12-08T10:07:55.159Z,8.30
2022-12-08T10:08:55.110Z,8.40
2022-12-08T10:09:55.099Z,9.70
2022-12-08T10:10:55.105Z,8.70
2022-12-08T10:11:55.050Z,8.50
2022-12-08T10:12:55.076Z,9.80
2022-12-08T10:13:55.035Z,9.50
2022-12-08T10:14:55.047Z,9.20
2022-12-08T10:15:55.063Z,9.40
2022-12-08T10:16:55.069Z,9.70
2022-12-08T10:17:55.042Z,9.60
2022-12-08T10:18:54.982Z,9.30
2022-12-08T10:19:55.046Z,9.50
2022-12-08T10:20:55.031Z,9.50
2022-12-08T10:21:54.942Z,9.40
2022-12-08T10:22:54.995Z,9.70
2022-12-08T10:23:54.926Z,9.80
2022-12-08T10:24:54.919Z,10.40
2022-12-08T10:25:54.925Z,10.70
2022-12-08T10:26:54.932Z,12.30
2022-12-08T10:27:54.875Z,14.40
2022-12-08T10:28:54.882Z,13.90
2022-12-08T10:29:54.876Z,24.00
2022-12-08T10:30:54.978Z,17.40
2022-12-08T10:31:54.923Z,15.20
2022-12-08T10:32:54.875Z,13.40
2022-12-08T10:33:54.848Z,13.20
2022-12-08T10:34:56.401Z,13.60
2022-12-08T10:35:54.799Z,13.90
2022-12-08T10:36:54.872Z,12.40
2022-12-08T10:37:54.790Z,13.30
2022-12-08T10:38:54.787Z,12.20
2022-12-08T10:39:54.793Z,11.70
2022-12-08T10:40:54.756Z,12.20
2022-12-08T10:41:54.756Z,11.90
2022-12-08T10:42:54.792Z,12.80
2022-12-08T10:43:54.727Z,12.30
2022-12-08T10:44:54.712Z,12.20
2022-12-08T10:45:54.729Z,12.00
2022-12-08T10:46:54.837Z,13.30
2022-12-08T10:47:55.621Z,11.90
2022-12-08T10:48:54.675Z,12.50
2022-12-08T10:49:54.692Z,11.90
2022-12-08T10:50:54.659Z,12.10
2022-12-08T10:51:54.637Z,12.30
2022-12-08T10:52:54.651Z,12.00
2022-12-08T10:53:54.606Z,12.30
2022-12-08T10:54:54.629Z,12.60
2022-12-08T10:55:54.620Z,13.40
2022-12-08T10:56:54.608Z,12.60
2022-12-08T10:57:54.574Z,12.50
2022-12-08T10:58:54.590Z,12.40
2022-12-08T10:59:54.574Z,12.10
2022-12-08T11:00:54.623Z,12.00
2022-12-08T11:01:54.735Z,12.00
2022-12-08T11:02:54.635Z,12.00
2022-12-08T11:03:54.558Z,11.70
2022-12-08T11:04:54.509Z,12.00
2022-12-08T11:05:54.488Z,12.60
2022-12-08T11:06:54.549Z,11.60
2022-12-08T11:07:54.554Z,12.10
2022-12-08T11:08:54.508Z,11.10
2022-12-08T11:09:54.451Z,11.80
2022-12-08T11:10:54.449Z,10.90
2022-12-08T11:11:54.453Z,11.80
2022-12-08T11:12:54.464Z,10.90
2022-12-08T11:13:54.435Z,11.90
2022-12-08T11:14:54.421Z,11.50
2022-12-08T11:15:54.462Z,11.60
2022-12-08T11:16:54.473Z,12.20
2022-12-08T11:17:57.616Z,11.80
2022-12-08T11:18:54.394Z,12.40
2022-12-08T11:19:54.382Z,15.10
2022-12-08T11:20:54.365Z,14.90
2022-12-08T11:21:54.333Z,12.70
2022-12-08T11:22:54.320Z,11.50
2022-12-08T11:23:54.318Z,11.40
2022-12-08T11:24:54.343Z,10.70
2022-12-08T11:25:54.341Z,11.90
2022-12-08T11:26:54.320Z,12.90
2022-12-08T11:27:54.274Z,12.50
2022-12-08T11:28:54.295Z,13.40
2022-12-08T11:29:54.261Z,12.40
2022-12-08T11:30:54.252Z,12.60
2022-12-08T11:31:54.288Z,14.50
2022-12-08T11:32:54.229Z,13.90
2022-12-08T11:33:54.190Z,13.00
2022-12-08T11:34:54.214Z,13.40
2022-12-08T11:35:54.198Z,13.40
2022-12-08T11:36:54.200Z,13.90
2022-12-08T11:38:03.065Z,14.00
2022-12-08T11:38:54.167Z,13.60
2022-12-08T11:39:54.292Z,13.90
2022-12-08T11:40:54.197Z,15.40
2022-12-08T11:41:54.150Z,14.50
2022-12-08T11:42:54.165Z,14.90
2022-12-08T11:43:54.250Z,14.40
2022-12-08T11:44:54.177Z,14.20
2022-12-08T11:45:54.145Z,14.50
2022-12-08T11:46:54.138Z,14.00
2022-12-08T11:47:55.935Z,15.20
2022-12-08T11:48:54.161Z,14.30
2022-12-08T11:49:54.159Z,15.30
2022-12-08T11:50:54.078Z,13.40
2022-12-08T11:51:54.061Z,13.70
2022-12-08T11:52:54.191Z,15.30
2022-12-08T11:53:54.182Z,15.30
2022-12-08T11:54:54.089Z,14.40
2022-12-08T11:55:53.999Z,14.40
2022-12-08T11:56:53.980Z,14.60
2022-12-08T11:57:54.120Z,14.50
2022-12-08T11:58:54.769Z,15.00
2022-12-08T11:59:53.969Z,14.90
2022-12-08T12:00:54.051Z,14.60
2022-12-08T12:01:54.083Z,14.60
2022-12-08T12:02:53.949Z,14.10
2022-12-08T12:03:53.928Z,13.70
2022-12-08T12:04:53.971Z,12.50
2022-12-08T12:06:12.939Z,14.40
2022-12-08T12:06:55.439Z,13.70
2022-12-08T12:07:53.996Z,13.40
2022-12-08T12:08:53.908Z,14.30
2022-12-08T12:09:53.911Z,13.30
2022-12-08T12:10:53.867Z,14.60
2022-12-08T12:11:53.919Z,15.50
2022-12-08T12:12:54.764Z,15.50
2022-12-08T12:13:53.829Z,15.20
2022-12-08T12:14:53.824Z,15.80
2022-12-08T12:15:53.798Z,17.50
2022-12-08T12:16:54.020Z,16.10
2022-12-08T12:17:53.836Z,17.70
2022-12-08T12:18:53.902Z,16.50
2022-12-08T12:19:53.731Z,17.30
2022-12-08T12:20:53.700Z,17.50
2022-12-08T12:21:53.811Z,17.70
2022-12-08T12:22:53.712Z,17.50
2022-12-08T12:23:53.689Z,17.60
2022-12-08T12:24:53.815Z,17.10
2022-12-08T12:25:53.694Z,16.50
2022-12-08T12:26:53.668Z,16.80
2022-12-08T12:27:57.069Z,16.50
2022-12-08T12:28:53.734Z,17.80
2022-12-08T12:29:55.968Z,16.80
2022-12-08T12:30:53.708Z,16.60
2022-12-08T12:31:53.604Z,15.40
2022-12-08T12:32:53.605Z,16.80
2022-12-08T12:33:53.614Z,16.30
2022-12-08T12:34:53.574Z,15.90
2022-12-08T12:35:53.544Z,17.40
2022-12-08T12:36:53.570Z,15.50
2022-12-08T12:37:53.591Z,11.80
2022-12-08T12:38:53.565Z,11.40
2022-12-08T12:39:54.210Z,11.40
2022-12-08T12:40:53.542Z,11.50
2022-12-08T12:41:53.518Z,11.10
2022-12-08T12:42:53.542Z,11.00
2022-12-08T12:43:53.485Z,10.90
2022-12-08T12:44:53.523Z,11.20
2022-12-08T12:45:53.564Z,10.70
2022-12-08T12:46:53.439Z,11.00
2022-12-08T12:47:56.619Z,11.30
2022-12-08T12:48:53.440Z,11.20
2022-12-08T12:49:53.425Z,10.90
2022-12-08T12:50:53.459Z,11.60
2022-12-08T12:51:53.464Z,11.30
2022-12-08T12:52:53.367Z,12.00
2022-12-08T12:53:53.423Z,12.10
2022-12-08T12:54:53.401Z,11.80
2022-12-08T12:55:53.381Z,11.40
2022-12-08T12:56:53.347Z,11.70
2022-12-08T12:57:53.366Z,12.60
2022-12-08T12:58:53.324Z,13.20